sensor_id;sensor_type;location;lat;lon;timestamp;temperature;humidity
12370;DHT22;6249;52.128;9.986;2022-08-19T00:02:10;20.90;99.90
12370;DHT22;6249;52.128;9.986;2022-08-19T00:05:31;20.90;99.90
12370;DHT22;6249;52.128;9.986;2022-08-19T00:08:51;20.90;99.90
12370;DHT22;6249;52.128;9.986;2022-08-19T00:12:12;20.80;99.90
12370;DHT22;6249;52.128;9.986;2022-08-19T00:15:33;20.80;99.90
12370;DHT22;6249;52.128;9.986;2022-08-19T00:18:56;20.80;99.90
12370;DHT22;6249;52.128;9.986;2022-08-19T00:22:17;20.70;99.90
12370;DHT22;6249;52.128;9.986;2022-08-19T00:25:38;20.70;99.90
12370;DHT22;6249;52.128;9.986;2022-08-19T00:29:04;20.60;99.90
12370;DHT22;6249;52.128;9.986;2022-08-19T00:32:27;20.50;99.90
12370;DHT22;6249;52.128;9.986;2022-08-19T00:35:48;20.50;99.90
12370;DHT22;6249;52.128;9.986;2022-08-19T00:39:10;20.40;99.90
12370;DHT22;6249;52.128;9.986;2022-08-19T00:42:30;20.30;99.90
12370;DHT22;6249;52.128;9.986;2022-08-19T00:45:54;20.30;99.90
12370;DHT22;6249;52.128;9.986;2022-08-19T00:49:24;20.40;99.90
12370;DHT22;6249;52.128;9.986;2022-08-19T00:52:49;20.40;99.90
12370;DHT22;6249;52.128;9.986;2022-08-19T00:56:13;20.40;99.90
12370;DHT22;6249;52.128;9.986;2022-08-19T00:59:35;20.30;99.90
12370;DHT22;6249;52.128;9.986;2022-08-19T01:02:58;20.20;99.90
12370;DHT22;6249;52.128;9.986;2022-08-19T01:06:19;20.20;99.90
12370;DHT22;6249;52.128;9.986;2022-08-19T01:09:42;20.10;99.90
12370;DHT22;6249;52.128;9.986;2022-08-19T01:13:08;20.10;99.90
12370;DHT22;6249;52.128;9.986;2022-08-19T01:16:33;20.10;99.90
12370;DHT22;6249;52.128;9.986;2022-08-19T01:19:54;20.00;99.90
12370;DHT22;6249;52.128;9.986;2022-08-19T01:23:18;20.00;99.90
12370;DHT22;6249;52.128;9.986;2022-08-19T01:26:43;20.00;99.90
12370;DHT22;6249;52.128;9.986;2022-08-19T01:30:05;20.00;99.90
12370;DHT22;6249;52.128;9.986;2022-08-19T01:33:26;20.00;99.90
12370;DHT22;6249;52.128;9.986;2022-08-19T01:36:49;19.90;99.90
12370;DHT22;6249;52.128;9.986;2022-08-19T01:40:11;20.00;99.90
12370;DHT22;6249;52.128;9.986;2022-08-19T01:43:32;19.90;99.90
12370;DHT22;6249;52.128;9.986;2022-08-19T01:46:56;19.90;99.90
12370;DHT22;6249;52.128;9.986;2022-08-19T01:50:17;19.90;99.90
12370;DHT22;6249;52.128;9.986;2022-08-19T01:53:38;19.80;99.90
12370;DHT22;6249;52.128;9.986;2022-08-19T01:57:08;19.70;99.90
12370;DHT22;6249;52.128;9.986;2022-08-19T02:00:32;19.70;99.90
12370;DHT22;6249;52.128;9.986;2022-08-19T02:03:55;19.60;99.90
12370;DHT22;6249;52.128;9.986;2022-08-19T02:07:18;19.60;99.90
12370;DHT22;6249;52.128;9.986;2022-08-19T02:10:43;19.60;99.90
12370;DHT22;6249;52.128;9.986;2022-08-19T02:14:06;19.60;99.90
12370;DHT22;6249;52.128;9.986;2022-08-19T02:17:28;19.50;99.90
12370;DHT22;6249;52.128;9.986;2022-08-19T02:20:49;19.50;99.90
12370;DHT22;6249;52.128;9.986;2022-08-19T02:24:12;19.50;99.90
12370;DHT22;6249;52.128;9.986;2022-08-19T02:27:35;19.50;99.90
12370;DHT22;6249;52.128;9.986;2022-08-19T02:31:00;19.50;99.90
12370;DHT22;6249;52.128;9.986;2022-08-19T02:34:23;19.60;99.90
12370;DHT22;6249;52.128;9.986;2022-08-19T02:37:45;19.60;99.90
12370;DHT22;6249;52.128;9.986;2022-08-19T02:41:31;19.50;99.90
12370;DHT22;6249;52.128;9.986;2022-08-19T02:44:55;19.50;99.90
12370;DHT22;6249;52.128;9.986;2022-08-19T02:48:22;19.50;99.90
12370;DHT22;6249;52.128;9.986;2022-08-19T02:51:44;19.40;99.90
12370;DHT22;6249;52.128;9.986;2022-08-19T02:55:06;19.50;99.90
12370;DHT22;6249;52.128;9.986;2022-08-19T02:58:26;19.40;99.90
12370;DHT22;6249;52.128;9.986;2022-08-19T03:01:47;19.40;99.90
12370;DHT22;6249;52.128;9.986;2022-08-19T03:05:09;19.40;99.90
12370;DHT22;6249;52.128;9.986;2022-08-19T03:08:30;19.40;99.90
12370;DHT22;6249;52.128;9.986;2022-08-19T03:11:51;19.40;99.90
12370;DHT22;6249;52.128;9.986;2022-08-19T03:15:12;19.40;99.90
12370;DHT22;6249;52.128;9.986;2022-08-19T03:18:32;19.40;99.90
12370;DHT22;6249;52.128;9.986;2022-08-19T03:21:53;19.30;99.90
12370;DHT22;6249;52.128;9.986;2022-08-19T03:25:18;19.30;99.90
12370;DHT22;6249;52.128;9.986;2022-08-19T03:28:38;19.20;99.90
12370;DHT22;6249;52.128;9.986;2022-08-19T03:32:04;19.20;99.90
12370;DHT22;6249;52.128;9.986;2022-08-19T03:35:27;19.30;99.90
12370;DHT22;6249;52.128;9.986;2022-08-19T03:38:54;19.20;99.90
12370;DHT22;6249;52.128;9.986;2022-08-19T03:42:17;19.30;99.90
12370;DHT22;6249;52.128;9.986;2022-08-19T03:45:41;19.30;99.90
12370;DHT22;6249;52.128;9.986;2022-08-19T03:49:04;19.20;99.90
12370;DHT22;6249;52.128;9.986;2022-08-19T03:52:28;19.30;99.90
12370;DHT22;6249;52.128;9.986;2022-08-19T03:55:54;19.20;99.90
12370;DHT22;6249;52.128;9.986;2022-08-19T03:59:18;19.20;99.90
12370;DHT22;6249;52.128;9.986;2022-08-19T04:02:39;19.20;99.90
12370;DHT22;6249;52.128;9.986;2022-08-19T04:09:35;19.10;99.90
12370;DHT22;6249;52.128;9.986;2022-08-19T04:12:56;19.10;99.90
12370;DHT22;6249;52.128;9.986;2022-08-19T04:16:21;19.00;99.90
12370;DHT22;6249;52.128;9.986;2022-08-19T04:19:49;18.90;99.90
12370;DHT22;6249;52.128;9.986;2022-08-19T04:23:13;18.90;99.90
12370;DHT22;6249;52.128;9.986;2022-08-19T04:26:36;18.90;99.90
12370;DHT22;6249;52.128;9.986;2022-08-19T04:29:57;18.80;99.90
12370;DHT22;6249;52.128;9.986;2022-08-19T04:33:20;18.80;99.90
12370;DHT22;6249;52.128;9.986;2022-08-19T04:36:44;18.80;99.90
12370;DHT22;6249;52.128;9.986;2022-08-19T04:40:06;18.90;99.90
12370;DHT22;6249;52.128;9.986;2022-08-19T04:43:45;18.90;99.90
12370;DHT22;6249;52.128;9.986;2022-08-19T04:47:09;18.90;99.90
12370;DHT22;6249;52.128;9.986;2022-08-19T04:50:29;18.90;99.90
12370;DHT22;6249;52.128;9.986;2022-08-19T04:53:51;18.90;99.90
12370;DHT22;6249;52.128;9.986;2022-08-19T04:57:14;19.00;99.90
12370;DHT22;6249;52.128;9.986;2022-08-19T05:00:38;19.00;99.90
12370;DHT22;6249;52.128;9.986;2022-08-19T05:04:01;19.00;99.90
12370;DHT22;6249;52.128;9.986;2022-08-19T05:07:21;19.00;99.90
12370;DHT22;6249;52.128;9.986;2022-08-19T05:10:42;19.00;99.90
12370;DHT22;6249;52.128;9.986;2022-08-19T05:14:08;19.00;99.90
12370;DHT22;6249;52.128;9.986;2022-08-19T05:17:34;19.10;99.90
12370;DHT22;6249;52.128;9.986;2022-08-19T05:20:55;19.10;99.90
12370;DHT22;6249;52.128;9.986;2022-08-19T05:24:34;19.00;99.90
12370;DHT22;6249;52.128;9.986;2022-08-19T05:27:55;19.10;99.90
12370;DHT22;6249;52.128;9.986;2022-08-19T05:31:18;19.00;99.90
12370;DHT22;6249;52.128;9.986;2022-08-19T05:34:39;19.10;99.90
12370;DHT22;6249;52.128;9.986;2022-08-19T05:38:00;19.10;99.90
12370;DHT22;6249;52.128;9.986;2022-08-19T05:41:22;19.10;99.90
12370;DHT22;6249;52.128;9.986;2022-08-19T05:44:51;19.20;99.90
12370;DHT22;6249;52.128;9.986;2022-08-19T05:48:14;19.20;99.90
12370;DHT22;6249;52.128;9.986;2022-08-19T05:51:41;19.20;99.90
12370;DHT22;6249;52.128;9.986;2022-08-19T05:55:02;19.20;99.90
12370;DHT22;6249;52.128;9.986;2022-08-19T05:58:25;19.10;99.90
12370;DHT22;6249;52.128;9.986;2022-08-19T06:01:52;19.20;99.90
12370;DHT22;6249;52.128;9.986;2022-08-19T06:05:15;19.20;99.90
12370;DHT22;6249;52.128;9.986;2022-08-19T06:08:37;19.30;99.90
12370;DHT22;6249;52.128;9.986;2022-08-19T06:11:58;19.40;99.90
12370;DHT22;6249;52.128;9.986;2022-08-19T06:15:22;19.30;99.90
12370;DHT22;6249;52.128;9.986;2022-08-19T06:18:46;19.30;99.90
12370;DHT22;6249;52.128;9.986;2022-08-19T06:22:07;19.30;99.90
12370;DHT22;6249;52.128;9.986;2022-08-19T06:25:30;19.30;99.90
12370;DHT22;6249;52.128;9.986;2022-08-19T06:28:51;19.40;99.90
12370;DHT22;6249;52.128;9.986;2022-08-19T06:32:14;19.40;99.90
12370;DHT22;6249;52.128;9.986;2022-08-19T06:35:39;19.30;99.90
12370;DHT22;6249;52.128;9.986;2022-08-19T06:39:02;19.40;99.90
12370;DHT22;6249;52.128;9.986;2022-08-19T06:42:25;19.40;99.90
12370;DHT22;6249;52.128;9.986;2022-08-19T06:45:46;19.40;99.90
12370;DHT22;6249;52.128;9.986;2022-08-19T06:49:07;19.50;99.90
12370;DHT22;6249;52.128;9.986;2022-08-19T06:52:38;19.60;99.90
12370;DHT22;6249;52.128;9.986;2022-08-19T06:56:00;19.60;99.90
12370;DHT22;6249;52.128;9.986;2022-08-19T06:59:25;19.60;99.90
12370;DHT22;6249;52.128;9.986;2022-08-19T07:02:48;19.60;99.90
12370;DHT22;6249;52.128;9.986;2022-08-19T07:06:15;19.70;99.90
12370;DHT22;6249;52.128;9.986;2022-08-19T07:09:40;19.70;99.90
12370;DHT22;6249;52.128;9.986;2022-08-19T07:13:05;19.80;99.90
12370;DHT22;6249;52.128;9.986;2022-08-19T07:16:26;19.90;99.90
12370;DHT22;6249;52.128;9.986;2022-08-19T07:19:49;20.00;99.90
12370;DHT22;6249;52.128;9.986;2022-08-19T07:23:13;20.10;99.90
12370;DHT22;6249;52.128;9.986;2022-08-19T07:26:38;20.20;99.90
12370;DHT22;6249;52.128;9.986;2022-08-19T07:30:00;20.30;99.90
12370;DHT22;6249;52.128;9.986;2022-08-19T07:33:20;20.50;99.90
12370;DHT22;6249;52.128;9.986;2022-08-19T07:36:44;20.60;99.90
12370;DHT22;6249;52.128;9.986;2022-08-19T07:40:06;20.70;99.90
12370;DHT22;6249;52.128;9.986;2022-08-19T07:43:27;20.70;99.90
12370;DHT22;6249;52.128;9.986;2022-08-19T07:46:51;20.70;99.90
12370;DHT22;6249;52.128;9.986;2022-08-19T07:50:19;20.80;99.90
12370;DHT22;6249;52.128;9.986;2022-08-19T07:53:40;21.00;99.90
12370;DHT22;6249;52.128;9.986;2022-08-19T07:57:01;21.10;99.90
12370;DHT22;6249;52.128;9.986;2022-08-19T08:00:22;21.30;99.90
12370;DHT22;6249;52.128;9.986;2022-08-19T08:03:43;21.40;99.90
12370;DHT22;6249;52.128;9.986;2022-08-19T08:07:23;21.60;99.90
12370;DHT22;6249;52.128;9.986;2022-08-19T08:11:02;21.60;99.90
12370;DHT22;6249;52.128;9.986;2022-08-19T08:17:46;22.10;99.90
12370;DHT22;6249;52.128;9.986;2022-08-19T08:21:08;22.30;99.90
12370;DHT22;6249;52.128;9.986;2022-08-19T08:24:32;22.70;99.90
12370;DHT22;6249;52.128;9.986;2022-08-19T08:27:54;23.00;99.90
12370;DHT22;6249;52.128;9.986;2022-08-19T08:31:14;23.30;99.90
12370;DHT22;6249;52.128;9.986;2022-08-19T08:34:35;23.30;99.90
12370;DHT22;6249;52.128;9.986;2022-08-19T08:37:57;23.40;99.90
12370;DHT22;6249;52.128;9.986;2022-08-19T08:45:00;23.20;99.90
12370;DHT22;6249;52.128;9.986;2022-08-19T08:55:24;23.20;99.90
12370;DHT22;6249;52.128;9.986;2022-08-19T08:58:56;23.20;99.90
12370;DHT22;6249;52.128;9.986;2022-08-19T09:02:18;23.20;99.90
12370;DHT22;6249;52.128;9.986;2022-08-19T09:12:51;23.90;99.90
12370;DHT22;6249;52.128;9.986;2022-08-19T09:16:19;24.10;99.90
12370;DHT22;6249;52.128;9.986;2022-08-19T09:23:15;24.50;99.90
12370;DHT22;6249;52.128;9.986;2022-08-19T09:26:36;24.30;99.90
12370;DHT22;6249;52.128;9.986;2022-08-19T09:29:59;24.30;99.90
12370;DHT22;6249;52.128;9.986;2022-08-19T09:33:20;24.30;99.90
12370;DHT22;6249;52.128;9.986;2022-08-19T09:36:42;24.60;99.90
12370;DHT22;6249;52.128;9.986;2022-08-19T09:40:04;24.50;99.90
12370;DHT22;6249;52.128;9.986;2022-08-19T09:43:24;24.60;99.90
12370;DHT22;6249;52.128;9.986;2022-08-19T09:46:50;24.60;99.90
12370;DHT22;6249;52.128;9.986;2022-08-19T09:50:12;24.50;99.90
12370;DHT22;6249;52.128;9.986;2022-08-19T09:53:35;24.70;99.90
12370;DHT22;6249;52.128;9.986;2022-08-19T09:56:58;25.10;99.90
12370;DHT22;6249;52.128;9.986;2022-08-19T10:00:22;25.60;99.90
12370;DHT22;6249;52.128;9.986;2022-08-19T10:03:43;26.00;99.60
12370;DHT22;6249;52.128;9.986;2022-08-19T10:07:06;26.50;98.60
12370;DHT22;6249;52.128;9.986;2022-08-19T10:10:29;27.00;97.80
12370;DHT22;6249;52.128;9.986;2022-08-19T10:13:50;27.40;97.70
12370;DHT22;6249;52.128;9.986;2022-08-19T10:17:10;27.40;96.90
12370;DHT22;6249;52.128;9.986;2022-08-19T10:20:31;27.50;98.00
12370;DHT22;6249;52.128;9.986;2022-08-19T10:23:54;27.60;95.80
12370;DHT22;6249;52.128;9.986;2022-08-19T10:27:18;27.40;96.40
12370;DHT22;6249;52.128;9.986;2022-08-19T10:30:40;27.30;96.80
12370;DHT22;6249;52.128;9.986;2022-08-19T10:34:01;27.60;96.60
12370;DHT22;6249;52.128;9.986;2022-08-19T10:37:21;28.20;95.50
12370;DHT22;6249;52.128;9.986;2022-08-19T10:40:42;28.70;93.90
12370;DHT22;6249;52.128;9.986;2022-08-19T10:44:08;28.60;94.50
12370;DHT22;6249;52.128;9.986;2022-08-19T10:47:29;29.00;93.20
12370;DHT22;6249;52.128;9.986;2022-08-19T10:50:49;29.50;91.90
12370;DHT22;6249;52.128;9.986;2022-08-19T10:54:33;29.70;91.00
12370;DHT22;6249;52.128;9.986;2022-08-19T10:58:19;29.70;91.20
12370;DHT22;6249;52.128;9.986;2022-08-19T11:01:48;30.00;89.20
12370;DHT22;6249;52.128;9.986;2022-08-19T11:05:13;30.20;90.40
12370;DHT22;6249;52.128;9.986;2022-08-19T11:08:38;30.80;86.30
12370;DHT22;6249;52.128;9.986;2022-08-19T11:11:58;30.60;86.10
12370;DHT22;6249;52.128;9.986;2022-08-19T11:15:19;31.10;84.90
12370;DHT22;6249;52.128;9.986;2022-08-19T11:18:43;31.60;81.20
12370;DHT22;6249;52.128;9.986;2022-08-19T11:22:10;32.10;79.70
12370;DHT22;6249;52.128;9.986;2022-08-19T11:25:33;32.40;80.00
12370;DHT22;6249;52.128;9.986;2022-08-19T11:28:56;32.70;73.30
12370;DHT22;6249;52.128;9.986;2022-08-19T11:32:19;32.80;71.60
12370;DHT22;6249;52.128;9.986;2022-08-19T11:35:45;32.90;73.40
12370;DHT22;6249;52.128;9.986;2022-08-19T11:39:07;33.40;71.50
12370;DHT22;6249;52.128;9.986;2022-08-19T11:42:30;33.80;69.70
12370;DHT22;6249;52.128;9.986;2022-08-19T11:46:12;34.30;65.40
12370;DHT22;6249;52.128;9.986;2022-08-19T11:49:33;34.30;63.70
12370;DHT22;6249;52.128;9.986;2022-08-19T11:52:57;34.60;62.80
12370;DHT22;6249;52.128;9.986;2022-08-19T11:56:20;34.50;59.40
12370;DHT22;6249;52.128;9.986;2022-08-19T11:59:47;33.90;63.90
12370;DHT22;6249;52.128;9.986;2022-08-19T12:03:10;34.30;60.90
12370;DHT22;6249;52.128;9.986;2022-08-19T12:06:34;34.30;61.10
12370;DHT22;6249;52.128;9.986;2022-08-19T12:09:59;34.60;60.00
12370;DHT22;6249;52.128;9.986;2022-08-19T12:13:20;34.50;61.00
12370;DHT22;6249;52.128;9.986;2022-08-19T12:16:40;35.10;60.60
12370;DHT22;6249;52.128;9.986;2022-08-19T12:20:02;35.60;56.20
12370;DHT22;6249;52.128;9.986;2022-08-19T12:23:26;35.80;57.30
12370;DHT22;6249;52.128;9.986;2022-08-19T12:26:46;36.90;55.90
12370;DHT22;6249;52.128;9.986;2022-08-19T12:30:13;37.00;54.50
12370;DHT22;6249;52.128;9.986;2022-08-19T12:33:34;37.50;53.30
12370;DHT22;6249;52.128;9.986;2022-08-19T12:37:00;37.80;51.80
12370;DHT22;6249;52.128;9.986;2022-08-19T12:40:21;37.80;51.40
12370;DHT22;6249;52.128;9.986;2022-08-19T12:43:42;38.00;51.80
12370;DHT22;6249;52.128;9.986;2022-08-19T12:47:02;38.30;51.10
12370;DHT22;6249;52.128;9.986;2022-08-19T12:50:24;38.60;51.10
12370;DHT22;6249;52.128;9.986;2022-08-19T12:53:46;38.40;45.90
12370;DHT22;6249;52.128;9.986;2022-08-19T12:57:08;37.60;48.30
12370;DHT22;6249;52.128;9.986;2022-08-19T13:00:31;37.50;47.70
12370;DHT22;6249;52.128;9.986;2022-08-19T13:03:54;37.70;49.50
12370;DHT22;6249;52.128;9.986;2022-08-19T13:07:17;38.30;48.90
12370;DHT22;6249;52.128;9.986;2022-08-19T13:10:46;38.90;46.70
12370;DHT22;6249;52.128;9.986;2022-08-19T13:14:07;38.80;45.90
12370;DHT22;6249;52.128;9.986;2022-08-19T13:17:27;37.90;45.60
12370;DHT22;6249;52.128;9.986;2022-08-19T13:20:48;37.10;46.80
12370;DHT22;6249;52.128;9.986;2022-08-19T13:24:09;37.70;45.20
12370;DHT22;6249;52.128;9.986;2022-08-19T13:27:34;37.90;46.20
12370;DHT22;6249;52.128;9.986;2022-08-19T13:30:55;38.60;45.60
12370;DHT22;6249;52.128;9.986;2022-08-19T13:34:39;39.00;44.60
12370;DHT22;6249;52.128;9.986;2022-08-19T13:37:59;39.30;45.20
12370;DHT22;6249;52.128;9.986;2022-08-19T13:41:24;39.90;43.40
12370;DHT22;6249;52.128;9.986;2022-08-19T13:44:47;39.90;41.80
12370;DHT22;6249;52.128;9.986;2022-08-19T13:48:08;39.50;41.40
12370;DHT22;6249;52.128;9.986;2022-08-19T13:51:29;39.70;42.50
12370;DHT22;6249;52.128;9.986;2022-08-19T13:54:51;40.30;41.00
12370;DHT22;6249;52.128;9.986;2022-08-19T13:58:15;41.00;41.50
12370;DHT22;6249;52.128;9.986;2022-08-19T14:01:36;41.60;39.80
12370;DHT22;6249;52.128;9.986;2022-08-19T14:05:00;41.90;40.90
12370;DHT22;6249;52.128;9.986;2022-08-19T14:08:21;42.00;39.40
12370;DHT22;6249;52.128;9.986;2022-08-19T14:11:44;42.20;38.70
12370;DHT22;6249;52.128;9.986;2022-08-19T14:15:08;42.30;38.70
12370;DHT22;6249;52.128;9.986;2022-08-19T14:18:31;42.30;37.50
12370;DHT22;6249;52.128;9.986;2022-08-19T14:21:52;42.70;36.40
12370;DHT22;6249;52.128;9.986;2022-08-19T14:25:17;42.50;36.40
12370;DHT22;6249;52.128;9.986;2022-08-19T14:28:41;42.70;35.30
12370;DHT22;6249;52.128;9.986;2022-08-19T14:32:02;42.40;36.40
12370;DHT22;6249;52.128;9.986;2022-08-19T14:35:24;42.40;35.90
12370;DHT22;6249;52.128;9.986;2022-08-19T14:38:46;42.40;34.80
12370;DHT22;6249;52.128;9.986;2022-08-19T14:42:11;42.60;36.00
12370;DHT22;6249;52.128;9.986;2022-08-19T14:45:36;43.10;35.10
12370;DHT22;6249;52.128;9.986;2022-08-19T14:49:00;42.40;36.30
12370;DHT22;6249;52.128;9.986;2022-08-19T14:52:20;42.10;36.30
12370;DHT22;6249;52.128;9.986;2022-08-19T14:55:44;41.70;37.30
12370;DHT22;6249;52.128;9.986;2022-08-19T14:59:05;42.60;37.80
12370;DHT22;6249;52.128;9.986;2022-08-19T15:02:30;43.00;35.10
12370;DHT22;6249;52.128;9.986;2022-08-19T15:05:53;42.90;34.90
12370;DHT22;6249;52.128;9.986;2022-08-19T15:09:14;42.30;34.30
12370;DHT22;6249;52.128;9.986;2022-08-19T15:12:35;41.90;35.50
12370;DHT22;6249;52.128;9.986;2022-08-19T15:15:56;41.80;35.90
12370;DHT22;6249;52.128;9.986;2022-08-19T15:19:17;42.00;35.80
12370;DHT22;6249;52.128;9.986;2022-08-19T15:22:40;42.30;36.40
12370;DHT22;6249;52.128;9.986;2022-08-19T15:26:02;41.90;35.60
12370;DHT22;6249;52.128;9.986;2022-08-19T15:29:23;40.70;35.50
12370;DHT22;6249;52.128;9.986;2022-08-19T15:32:44;39.80;37.70
12370;DHT22;6249;52.128;9.986;2022-08-19T15:36:05;40.20;37.20
12370;DHT22;6249;52.128;9.986;2022-08-19T15:39:28;40.00;38.00
12370;DHT22;6249;52.128;9.986;2022-08-19T15:42:51;39.10;39.80
12370;DHT22;6249;52.128;9.986;2022-08-19T15:46:26;39.40;39.70
12370;DHT22;6249;52.128;9.986;2022-08-19T15:49:47;40.30;39.20
12370;DHT22;6249;52.128;9.986;2022-08-19T15:53:09;40.00;38.60
12370;DHT22;6249;52.128;9.986;2022-08-19T15:56:30;38.80;37.90
12370;DHT22;6249;52.128;9.986;2022-08-19T16:00:09;37.30;38.80
12370;DHT22;6249;52.128;9.986;2022-08-19T16:03:59;36.20;40.40
12370;DHT22;6249;52.128;9.986;2022-08-19T16:07:38;36.00;41.90
12370;DHT22;6249;52.128;9.986;2022-08-19T16:11:01;36.20;42.00
12370;DHT22;6249;52.128;9.986;2022-08-19T16:14:24;36.60;41.90
12370;DHT22;6249;52.128;9.986;2022-08-19T16:17:44;37.50;40.60
12370;DHT22;6249;52.128;9.986;2022-08-19T16:21:05;37.80;40.80
12370;DHT22;6249;52.128;9.986;2022-08-19T16:24:27;37.40;41.50
12370;DHT22;6249;52.128;9.986;2022-08-19T16:27:48;36.50;40.50
12370;DHT22;6249;52.128;9.986;2022-08-19T16:31:10;35.80;41.90
12370;DHT22;6249;52.128;9.986;2022-08-19T16:34:31;35.30;42.00
12370;DHT22;6249;52.128;9.986;2022-08-19T16:37:52;34.80;43.90
12370;DHT22;6249;52.128;9.986;2022-08-19T16:41:13;34.30;44.30
12370;DHT22;6249;52.128;9.986;2022-08-19T16:44:41;34.00;45.40
12370;DHT22;6249;52.128;9.986;2022-08-19T16:48:04;33.60;45.30
12370;DHT22;6249;52.128;9.986;2022-08-19T16:51:25;33.40;48.30
12370;DHT22;6249;52.128;9.986;2022-08-19T16:54:48;33.10;47.50
12370;DHT22;6249;52.128;9.986;2022-08-19T16:58:09;32.70;46.50
12370;DHT22;6249;52.128;9.986;2022-08-19T17:01:34;32.40;48.60
12370;DHT22;6249;52.128;9.986;2022-08-19T17:05:01;32.10;49.60
12370;DHT22;6249;52.128;9.986;2022-08-19T17:08:25;31.70;48.80
12370;DHT22;6249;52.128;9.986;2022-08-19T17:11:49;31.10;52.20
12370;DHT22;6249;52.128;9.986;2022-08-19T17:15:14;31.00;52.30
12370;DHT22;6249;52.128;9.986;2022-08-19T17:18:35;30.80;53.00
12370;DHT22;6249;52.128;9.986;2022-08-19T17:21:55;30.60;53.10
12370;DHT22;6249;52.128;9.986;2022-08-19T17:25:18;30.50;52.90
12370;DHT22;6249;52.128;9.986;2022-08-19T17:28:39;30.40;52.90
12370;DHT22;6249;52.128;9.986;2022-08-19T17:31:59;30.30;54.30
12370;DHT22;6249;52.128;9.986;2022-08-19T17:35:20;30.10;55.00
12370;DHT22;6249;52.128;9.986;2022-08-19T17:38:43;30.00;54.30
12370;DHT22;6249;52.128;9.986;2022-08-19T17:42:04;29.90;55.20
12370;DHT22;6249;52.128;9.986;2022-08-19T17:45:25;29.80;56.40
12370;DHT22;6249;52.128;9.986;2022-08-19T17:48:50;29.70;57.80
12370;DHT22;6249;52.128;9.986;2022-08-19T17:52:16;29.40;58.00
12370;DHT22;6249;52.128;9.986;2022-08-19T17:55:37;29.20;58.50
12370;DHT22;6249;52.128;9.986;2022-08-19T17:59:02;29.10;59.20
12370;DHT22;6249;52.128;9.986;2022-08-19T18:02:24;29.00;59.70
12370;DHT22;6249;52.128;9.986;2022-08-19T18:05:44;28.80;60.00
12370;DHT22;6249;52.128;9.986;2022-08-19T18:09:08;28.60;61.50
12370;DHT22;6249;52.128;9.986;2022-08-19T18:12:29;28.30;62.90
12370;DHT22;6249;52.128;9.986;2022-08-19T18:15:54;28.20;62.80
12370;DHT22;6249;52.128;9.986;2022-08-19T18:19:19;28.00;65.30
12370;DHT22;6249;52.128;9.986;2022-08-19T18:22:45;27.80;65.80
12370;DHT22;6249;52.128;9.986;2022-08-19T18:26:06;27.60;65.80
12370;DHT22;6249;52.128;9.986;2022-08-19T18:29:26;27.40;66.90
12370;DHT22;6249;52.128;9.986;2022-08-19T18:32:49;27.20;67.30
12370;DHT22;6249;52.128;9.986;2022-08-19T18:36:14;27.20;67.30
12370;DHT22;6249;52.128;9.986;2022-08-19T18:39:34;27.10;68.10
12370;DHT22;6249;52.128;9.986;2022-08-19T18:43:13;27.00;69.00
12370;DHT22;6249;52.128;9.986;2022-08-19T18:46:48;26.90;68.50
12370;DHT22;6249;52.128;9.986;2022-08-19T18:50:27;26.80;69.90
12370;DHT22;6249;52.128;9.986;2022-08-19T18:53:50;26.60;71.50
12370;DHT22;6249;52.128;9.986;2022-08-19T18:57:14;26.40;71.90
12370;DHT22;6249;52.128;9.986;2022-08-19T19:00:36;26.30;73.40
12370;DHT22;6249;52.128;9.986;2022-08-19T19:04:00;26.20;74.10
12370;DHT22;6249;52.128;9.986;2022-08-19T19:07:24;26.10;74.70
12370;DHT22;6249;52.128;9.986;2022-08-19T19:10:47;26.00;76.10
12370;DHT22;6249;52.128;9.986;2022-08-19T19:14:16;25.80;76.40
12370;DHT22;6249;52.128;9.986;2022-08-19T19:17:37;25.80;77.00
12370;DHT22;6249;52.128;9.986;2022-08-19T19:21:01;25.70;77.50
12370;DHT22;6249;52.128;9.986;2022-08-19T19:24:25;25.70;78.70
12370;DHT22;6249;52.128;9.986;2022-08-19T19:27:49;25.50;80.20
12370;DHT22;6249;52.128;9.986;2022-08-19T19:31:24;25.40;81.50
12370;DHT22;6249;52.128;9.986;2022-08-19T19:34:46;25.30;82.60
12370;DHT22;6249;52.128;9.986;2022-08-19T19:38:06;25.20;84.30
12370;DHT22;6249;52.128;9.986;2022-08-19T19:41:27;25.10;83.40
12370;DHT22;6249;52.128;9.986;2022-08-19T19:44:53;25.10;84.30
12370;DHT22;6249;52.128;9.986;2022-08-19T19:48:14;24.90;85.50
12370;DHT22;6249;52.128;9.986;2022-08-19T19:51:38;24.70;86.90
12370;DHT22;6249;52.128;9.986;2022-08-19T19:55:04;24.50;88.50
12370;DHT22;6249;52.128;9.986;2022-08-19T19:58:26;24.30;90.10
12370;DHT22;6249;52.128;9.986;2022-08-19T20:01:47;24.20;90.80
12370;DHT22;6249;52.128;9.986;2022-08-19T20:05:11;24.20;91.10
12370;DHT22;6249;52.128;9.986;2022-08-19T20:08:37;25.10;91.80
12370;DHT22;6249;52.128;9.986;2022-08-19T20:12:16;24.10;92.00
12370;DHT22;6249;52.128;9.986;2022-08-19T20:15:37;24.00;92.30
12370;DHT22;6249;52.128;9.986;2022-08-19T20:19:06;24.60;93.10
12370;DHT22;6249;52.128;9.986;2022-08-19T20:22:30;23.20;92.40
12370;DHT22;6249;52.128;9.986;2022-08-19T20:25:53;24.00;93.10
12370;DHT22;6249;52.128;9.986;2022-08-19T20:29:18;24.00;93.60
12370;DHT22;6249;52.128;9.986;2022-08-19T20:32:43;23.90;94.00
12370;DHT22;6249;52.128;9.986;2022-08-19T20:36:06;23.80;94.30
12370;DHT22;6249;52.128;9.986;2022-08-19T20:39:26;23.80;95.60
12370;DHT22;6249;52.128;9.986;2022-08-19T20:42:49;23.60;95.70
12370;DHT22;6249;52.128;9.986;2022-08-19T20:46:10;24.60;96.50
12370;DHT22;6249;52.128;9.986;2022-08-19T20:49:34;23.40;95.90
12370;DHT22;6249;52.128;9.986;2022-08-19T20:52:55;23.30;96.30
12370;DHT22;6249;52.128;9.986;2022-08-19T20:56:15;23.20;96.60
12370;DHT22;6249;52.128;9.986;2022-08-19T20:59:36;23.30;97.00
12370;DHT22;6249;52.128;9.986;2022-08-19T21:02:56;23.30;97.00
12370;DHT22;6249;52.128;9.986;2022-08-19T21:06:19;23.30;97.40
12370;DHT22;6249;52.128;9.986;2022-08-19T21:09:40;23.20;97.90
12370;DHT22;6249;52.128;9.986;2022-08-19T21:13:04;23.10;98.30
12370;DHT22;6249;52.128;9.986;2022-08-19T21:16:24;23.10;98.20
12370;DHT22;6249;52.128;9.986;2022-08-19T21:19:47;23.10;98.60
12370;DHT22;6249;52.128;9.986;2022-08-19T21:23:11;23.00;98.60
12370;DHT22;6249;52.128;9.986;2022-08-19T21:26:32;22.90;99.10
12370;DHT22;6249;52.128;9.986;2022-08-19T21:29:55;22.80;99.80
12370;DHT22;6249;52.128;9.986;2022-08-19T21:33:25;22.80;99.80
12370;DHT22;6249;52.128;9.986;2022-08-19T21:36:46;22.60;99.70
12370;DHT22;6249;52.128;9.986;2022-08-19T21:40:10;22.70;99.90
12370;DHT22;6249;52.128;9.986;2022-08-19T21:43:34;22.70;99.90
12370;DHT22;6249;52.128;9.986;2022-08-19T21:47:00;22.60;99.90
12370;DHT22;6249;52.128;9.986;2022-08-19T21:50:22;22.50;99.90
12370;DHT22;6249;52.128;9.986;2022-08-19T21:54:17;22.50;99.90
12370;DHT22;6249;52.128;9.986;2022-08-19T21:57:40;22.40;99.90
12370;DHT22;6249;52.128;9.986;2022-08-19T22:01:03;22.40;99.90
12370;DHT22;6249;52.128;9.986;2022-08-19T22:04:25;22.30;99.90
12370;DHT22;6249;52.128;9.986;2022-08-19T22:07:46;22.30;99.90
12370;DHT22;6249;52.128;9.986;2022-08-19T22:11:09;22.20;99.90
12370;DHT22;6249;52.128;9.986;2022-08-19T22:14:30;22.20;99.90